Terminal Aerodrome Forecast
Issued by NWS

Home | Current Version | Previous Version | Text Only | Print | Product List | Glossary On
Versions: 1 2 3 4 5 6 7 8 9 10 11 12 13 14 15 16
000
FTUS41 KBGM 172341
TAFITH
TAF
KITH 172341Z 1800/1824 15010KT P6SM -RA SCT008 OVC012
      TEMPO 1800/1803 5SM -RA BR OVC008
     FM180300 16005KT 2SM -DZ BR OVC005
     FM181300 VRB03KT 4SM BR OVC005
     FM181600 29007KT P6SM OVC008=

USA.gov is the U.S. government's official web portal to all federal, state and local government web resources and services.